createdAt,value
2023-06-19T00:00:26.848Z,47.45
2023-06-19T00:01:29.180Z,46.45
2023-06-19T00:02:33.908Z,47.09
2023-06-19T00:03:36.767Z,47.30
2023-06-19T00:04:41.494Z,46.95
2023-06-19T00:05:43.665Z,46.80
2023-06-19T00:06:49.628Z,46.54
2023-06-19T00:07:52.122Z,47.47
2023-06-19T00:08:59.471Z,46.58
2023-06-19T00:10:01.589Z,46.72
2023-06-19T00:11:06.643Z,47.01
2023-06-19T00:12:09.127Z,46.88
2023-06-19T00:13:13.800Z,46.91
2023-06-19T00:14:16.057Z,47.36
2023-06-19T00:15:21.067Z,47.46
2023-06-19T00:16:26.310Z,47.91
2023-06-19T00:17:31.875Z,46.96
2023-06-19T00:18:41.484Z,46.82
2023-06-19T00:19:46.650Z,47.51
2023-06-19T00:20:48.845Z,47.63
2023-06-19T00:21:58.334Z,48.12
2023-06-19T00:23:00.538Z,48.41
2023-06-19T00:24:08.797Z,48.01
2023-06-19T00:25:11.792Z,48.41
2023-06-19T00:26:16.483Z,47.63
2023-06-19T00:27:18.631Z,48.24
2023-06-19T00:28:23.434Z,47.98
2023-06-19T00:29:29.414Z,48.54
2023-06-19T00:30:34.122Z,48.77
2023-06-19T00:31:38.465Z,48.99
2023-06-19T00:32:51.230Z,48.89
2023-06-19T00:33:53.452Z,48.75
2023-06-19T00:34:58.385Z,49.32
2023-06-19T00:36:00.614Z,49.40
2023-06-19T00:37:05.306Z,49.48
2023-06-19T00:38:09.383Z,49.60
2023-06-19T00:39:16.706Z,48.87
2023-06-19T00:40:28.363Z,49.33
2023-06-19T00:41:33.171Z,49.73
2023-06-19T00:42:35.267Z,49.93
2023-06-19T00:43:39.971Z,50.24
2023-06-19T00:44:42.665Z,50.50
2023-06-19T00:45:47.431Z,50.98
2023-06-19T00:46:52.942Z,51.25
2023-06-19T00:48:00.205Z,50.98
2023-06-19T00:49:02.646Z,51.31
2023-06-19T00:50:08.824Z,51.89
2023-06-19T00:51:11.215Z,52.58
2023-06-19T00:52:15.993Z,51.76
2023-06-19T00:53:20.629Z,52.08
2023-06-19T00:54:28.376Z,52.39
2023-06-19T00:55:31.170Z,52.98
2023-06-19T00:56:36.462Z,53.15
2023-06-19T00:57:40.815Z,54.10
2023-06-19T00:58:45.622Z,54.71
2023-06-19T00:59:47.959Z,53.41
2023-06-19T01:01:07.483Z,54.12
2023-06-19T01:02:13.691Z,54.11
2023-06-19T01:03:17.796Z,54.56
2023-06-19T01:04:23.627Z,55.26
2023-06-19T01:05:26.663Z,55.32
2023-06-19T01:06:39.600Z,56.06
2023-06-19T01:07:47.422Z,55.26
2023-06-19T01:09:00.160Z,56.08
2023-06-19T01:10:09.052Z,56.85
2023-06-19T01:11:26.049Z,57.32
2023-06-19T01:12:36.465Z,57.95
2023-06-19T01:13:46.841Z,57.09
2023-06-19T01:14:56.905Z,57.33
2023-06-19T01:16:03.584Z,57.43
2023-06-19T01:17:07.720Z,57.12
2023-06-19T01:18:14.150Z,57.74
2023-06-19T01:19:21.077Z,57.75
2023-06-19T01:20:26.273Z,56.66
2023-06-19T01:21:28.556Z,56.63
2023-06-19T01:22:36.098Z,56.90
2023-06-19T01:23:38.247Z,56.99
2023-06-19T01:24:43.006Z,57.03
2023-06-19T01:25:45.192Z,56.94
2023-06-19T01:26:49.974Z,56.66
2023-06-19T01:27:52.627Z,57.27
2023-06-19T01:28:58.608Z,57.53
2023-06-19T01:30:01.361Z,56.88
2023-06-19T01:31:06.971Z,56.82
2023-06-19T01:32:15.006Z,57.70
2023-06-19T01:33:24.515Z,56.65
2023-06-19T01:34:28.557Z,56.95
2023-06-19T01:35:36.838Z,57.26
2023-06-19T01:36:39.125Z,57.52
2023-06-19T01:37:47.435Z,56.94
2023-06-19T01:38:50.654Z,57.10
2023-06-19T01:39:56.349Z,57.31
2023-06-19T01:41:00.701Z,56.71
2023-06-19T01:42:06.679Z,55.79
2023-06-19T01:43:09.569Z,55.99
2023-06-19T01:44:14.729Z,56.00
2023-06-19T01:45:17.032Z,55.33
2023-06-19T01:46:21.999Z,55.24
2023-06-19T01:47:24.327Z,55.88
2023-06-19T01:48:29.236Z,54.80
2023-06-19T01:49:31.370Z,54.57
2023-06-19T01:50:36.029Z,54.09
2023-06-19T01:51:38.222Z,54.07
2023-06-19T01:52:42.994Z,54.05
2023-06-19T01:53:47.674Z,54.01
2023-06-19T01:54:52.382Z,53.79
2023-06-19T01:55:54.634Z,53.56
2023-06-19T01:57:00.775Z,53.44
2023-06-19T01:58:02.928Z,53.95
2023-06-19T01:59:07.645Z,54.11
2023-06-19T02:00:11.640Z,53.84
2023-06-19T02:01:16.362Z,54.12
2023-06-19T02:02:18.512Z,54.23
2023-06-19T02:03:23.334Z,54.25
2023-06-19T02:04:25.565Z,54.21
2023-06-19T02:05:30.252Z,54.54
2023-06-19T02:06:32.602Z,54.35
2023-06-19T02:07:37.373Z,54.70
2023-06-19T02:08:39.484Z,55.00
2023-06-19T02:09:46.746Z,55.13
2023-06-19T02:10:49.103Z,55.52
2023-06-19T02:11:53.960Z,56.42
2023-06-19T02:12:56.085Z,56.96
2023-06-19T02:14:00.771Z,57.51
2023-06-19T02:15:03.051Z,57.57
2023-06-19T02:16:08.246Z,58.03
2023-06-19T02:17:10.463Z,58.61
2023-06-19T02:18:15.126Z,58.53
2023-06-19T02:19:17.362Z,59.10
2023-06-19T02:20:22.194Z,59.72
2023-06-19T02:21:24.611Z,59.92
2023-06-19T02:22:29.360Z,60.16
2023-06-19T02:23:31.554Z,60.24
2023-06-19T02:24:38.451Z,60.23
2023-06-19T02:25:43.738Z,60.87
2023-06-19T02:26:48.519Z,61.18
2023-06-19T02:27:50.632Z,61.31
2023-06-19T02:28:55.563Z,61.74
2023-06-19T02:29:57.634Z,62.11
2023-06-19T02:31:02.296Z,62.01
2023-06-19T02:32:04.888Z,62.33
2023-06-19T02:33:09.844Z,63.14
2023-06-19T02:34:11.990Z,64.53
2023-06-19T02:35:16.944Z,64.59
2023-06-19T02:36:20.874Z,64.76
2023-06-19T02:37:25.632Z,65.68
2023-06-19T02:38:28.233Z,66.44
2023-06-19T02:39:33.554Z,66.75
2023-06-19T02:40:35.678Z,66.27
2023-06-19T02:41:46.962Z,66.45
2023-06-19T02:42:49.060Z,66.97
2023-06-19T02:43:53.793Z,67.18
2023-06-19T02:44:55.913Z,67.18
2023-06-19T02:46:00.650Z,67.31
2023-06-19T02:47:02.833Z,68.04
2023-06-19T02:48:08.598Z,68.82
2023-06-19T02:49:10.708Z,68.29
2023-06-19T02:50:15.446Z,68.69
2023-06-19T02:51:17.637Z,69.43
2023-06-19T02:52:22.635Z,69.84
2023-06-19T02:53:24.708Z,70.71
2023-06-19T02:54:29.404Z,71.64
2023-06-19T02:55:31.504Z,72.42
2023-06-19T02:56:36.216Z,72.61
2023-06-19T02:57:40.862Z,71.87
2023-06-19T02:58:45.571Z,72.33
2023-06-19T02:59:50.143Z,72.29
2023-06-19T03:00:55.020Z,72.43
2023-06-19T03:01:57.211Z,73.39
2023-06-19T03:03:01.914Z,74.77
2023-06-19T03:04:04.416Z,73.81
2023-06-19T03:05:10.048Z,73.42
2023-06-19T03:06:12.192Z,73.42
2023-06-19T03:07:17.999Z,74.39
2023-06-19T03:08:20.193Z,74.45
2023-06-19T03:09:24.876Z,74.63
2023-06-19T03:10:27.374Z,75.95
2023-06-19T03:11:32.168Z,75.39
2023-06-19T03:12:34.277Z,76.43
2023-06-19T03:13:49.649Z,76.78
2023-06-19T03:14:51.776Z,77.50
2023-06-19T03:15:56.509Z,77.96
2023-06-19T03:16:58.747Z,77.89
2023-06-19T03:18:05.785Z,77.31
2023-06-19T03:19:07.950Z,78.90
2023-06-19T03:20:14.094Z,78.89
2023-06-19T03:21:17.209Z,79.80
2023-06-19T03:22:23.380Z,80.17
2023-06-19T03:23:25.485Z,80.30
2023-06-19T03:24:30.189Z,81.04
2023-06-19T03:25:36.297Z,80.39
2023-06-19T03:26:41.122Z,80.70
2023-06-19T03:27:43.258Z,81.10
2023-06-19T03:28:50.942Z,81.90
2023-06-19T03:29:53.144Z,83.38
2023-06-19T03:30:58.409Z,83.24
2023-06-19T03:32:00.577Z,83.42
2023-06-19T03:33:05.341Z,83.41
2023-06-19T03:34:07.574Z,84.19
2023-06-19T03:35:12.875Z,84.70
2023-06-19T03:36:17.595Z,85.35
2023-06-19T03:37:19.703Z,84.71
2023-06-19T03:38:24.520Z,84.12
2023-06-19T03:39:26.639Z,83.29
2023-06-19T03:40:32.415Z,82.69
2023-06-19T03:41:34.731Z,82.28
2023-06-19T03:42:39.504Z,83.09
2023-06-19T03:43:41.622Z,83.99
2023-06-19T03:44:48.888Z,84.99
2023-06-19T03:45:51.062Z,84.95
2023-06-19T03:46:55.870Z,85.23
2023-06-19T03:47:58.034Z,86.34
2023-06-19T03:49:03.981Z,87.07
2023-06-19T03:50:20.911Z,87.47
2023-06-19T03:51:26.487Z,86.66
2023-06-19T03:52:28.796Z,87.00
2023-06-19T03:53:33.487Z,87.61
2023-06-19T03:54:35.563Z,89.14
2023-06-19T03:55:40.321Z,89.39
2023-06-19T03:56:42.441Z,89.16
2023-06-19T03:57:47.214Z,89.91
2023-06-19T03:58:49.346Z,89.75
2023-06-19T03:59:56.826Z,91.03
2023-06-19T04:00:58.908Z,92.90
2023-06-19T04:02:04.936Z,93.02
2023-06-19T04:03:07.158Z,94.46
2023-06-19T04:04:11.926Z,94.51
2023-06-19T04:05:14.954Z,95.58
2023-06-19T04:06:19.681Z,97.89
2023-06-19T04:07:21.850Z,98.12
2023-06-19T04:08:26.532Z,99.35
2023-06-19T04:09:28.887Z,99.09
2023-06-19T04:10:35.292Z,99.13
2023-06-19T04:11:38.214Z,98.13
2023-06-19T04:12:43.869Z,100.00
2023-06-19T04:13:46.034Z,100.00
2023-06-19T04:14:50.777Z,100.00
2023-06-19T04:15:55.519Z,100.00
2023-06-19T04:17:00.233Z,100.00
2023-06-19T04:18:02.496Z,100.00
2023-06-19T04:19:07.279Z,100.00
2023-06-19T04:20:12.679Z,100.00
2023-06-19T04:21:18.455Z,100.00
2023-06-19T04:22:20.608Z,100.00
2023-06-19T04:23:25.325Z,100.00
2023-06-19T04:24:27.543Z,100.00
2023-06-19T04:25:32.308Z,100.00
2023-06-19T04:26:34.430Z,100.00
2023-06-19T04:27:39.183Z,100.00
2023-06-19T04:28:41.424Z,100.00
2023-06-19T04:29:46.156Z,100.00
2023-06-19T04:30:48.306Z,100.00
2023-06-19T04:31:55.992Z,100.00
2023-06-19T04:32:58.739Z,100.00
2023-06-19T04:34:05.918Z,100.00
2023-06-19T04:35:09.161Z,100.00
2023-06-19T04:36:14.015Z,100.00
2023-06-19T04:37:20.284Z,100.00
2023-06-19T04:38:25.982Z,100.00
2023-06-19T04:39:28.093Z,100.00
2023-06-19T04:40:33.581Z,100.00
2023-06-19T04:41:39.666Z,100.00
2023-06-19T04:42:41.810Z,100.00
2023-06-19T04:43:46.661Z,100.00
2023-06-19T04:44:49.286Z,100.00
2023-06-19T04:45:54.827Z,100.00
2023-06-19T04:47:02.356Z,100.00
2023-06-19T04:48:07.773Z,100.00
2023-06-19T04:49:10.519Z,100.00
2023-06-19T04:50:16.917Z,100.00
2023-06-19T04:51:22.221Z,100.00
2023-06-19T04:52:27.155Z,100.00
2023-06-19T04:53:29.343Z,99.28
2023-06-19T04:54:34.736Z,97.99
2023-06-19T04:55:36.891Z,97.51
2023-06-19T04:56:41.724Z,98.14
2023-06-19T04:57:43.801Z,96.90
2023-06-19T04:58:50.305Z,96.61
2023-06-19T04:59:52.430Z,96.71
2023-06-19T05:00:57.143Z,97.54
2023-06-19T05:02:01.864Z,96.67
2023-06-19T05:03:06.888Z,98.06
2023-06-19T05:04:09.090Z,97.99
2023-06-19T05:05:14.013Z,96.05
2023-06-19T05:06:16.196Z,93.97
2023-06-19T05:07:20.991Z,94.35
2023-06-19T05:08:25.662Z,96.07
2023-06-19T05:09:27.848Z,94.33
2023-06-19T05:10:32.504Z,94.19
2023-06-19T05:11:34.636Z,94.43
2023-06-19T05:12:39.555Z,94.39
2023-06-19T05:13:41.727Z,95.02
2023-06-19T05:14:46.354Z,93.48
2023-06-19T05:15:49.915Z,93.21
2023-06-19T05:16:54.757Z,93.28
2023-06-19T05:17:59.532Z,92.91
2023-06-19T05:19:04.459Z,93.69
2023-06-19T05:20:08.639Z,92.84
2023-06-19T05:21:13.937Z,94.45
2023-06-19T05:22:16.153Z,93.68
2023-06-19T05:23:20.829Z,93.92
2023-06-19T05:24:22.995Z,94.20
2023-06-19T05:25:28.889Z,92.93
2023-06-19T05:26:31.068Z,92.63
2023-06-19T05:27:35.743Z,92.47
2023-06-19T05:28:37.836Z,94.53
2023-06-19T05:29:42.937Z,96.13
2023-06-19T05:30:46.254Z,94.92
2023-06-19T05:31:51.583Z,93.41
2023-06-19T05:32:54.212Z,95.74
2023-06-19T05:34:02.672Z,96.81
2023-06-19T05:35:06.032Z,97.60
2023-06-19T05:36:11.370Z,97.85
2023-06-19T05:37:13.902Z,98.47
2023-06-19T05:38:18.891Z,98.60
2023-06-19T05:39:21.206Z,100.00
2023-06-19T05:40:26.569Z,100.00
2023-06-19T05:41:28.990Z,99.02
2023-06-19T05:42:34.289Z,98.98
2023-06-19T05:43:36.919Z,97.55
2023-06-19T05:44:42.533Z,98.14
2023-06-19T05:45:45.119Z,100.00
2023-06-19T05:46:50.558Z,100.00
2023-06-19T05:47:53.007Z,100.00
2023-06-19T05:48:59.128Z,100.00
2023-06-19T05:50:04.629Z,100.00
2023-06-19T05:51:09.898Z,100.00
2023-06-19T05:52:12.619Z,97.36
2023-06-19T05:53:17.758Z,98.49
2023-06-19T05:54:22.975Z,98.41
2023-06-19T05:55:26.370Z,96.08
2023-06-19T05:56:31.872Z,94.77
2023-06-19T05:57:35.102Z,95.90
2023-06-19T05:58:40.676Z,94.78
2023-06-19T05:59:43.504Z,93.89
2023-06-19T06:00:48.806Z,93.46
2023-06-19T06:01:52.180Z,91.74
2023-06-19T06:02:57.975Z,91.60
2023-06-19T06:04:03.050Z,87.66
2023-06-19T06:05:12.989Z,91.91
2023-06-19T06:06:18.383Z,91.28
2023-06-19T06:07:21.103Z,87.70
2023-06-19T06:08:26.426Z,84.40
2023-06-19T06:09:29.224Z,82.92
2023-06-19T06:10:34.526Z,82.77
2023-06-19T06:11:37.019Z,85.58
2023-06-19T06:12:42.444Z,82.60
2023-06-19T06:13:44.821Z,82.25
2023-06-19T06:14:49.944Z,80.85
2023-06-19T06:15:52.383Z,86.98
2023-06-19T06:16:57.881Z,84.37
2023-06-19T06:18:00.666Z,87.84
2023-06-19T06:19:05.611Z,86.16
2023-06-19T06:20:13.867Z,86.18
2023-06-19T06:21:18.882Z,87.46
2023-06-19T06:22:21.175Z,85.48
2023-06-19T06:23:26.273Z,88.76
2023-06-19T06:24:28.718Z,88.34
2023-06-19T06:25:34.009Z,86.08
2023-06-19T06:26:37.008Z,85.89
2023-06-19T06:27:42.033Z,84.56
2023-06-19T06:28:45.021Z,83.31
2023-06-19T06:29:50.118Z,86.99
2023-06-19T06:30:54.982Z,86.07
2023-06-19T06:32:08.875Z,87.03
2023-06-19T06:33:11.292Z,86.08
2023-06-19T06:34:16.180Z,83.11
2023-06-19T06:35:21.376Z,84.29
2023-06-19T06:36:36.127Z,85.86
2023-06-19T06:37:43.152Z,84.95
2023-06-19T06:38:45.404Z,83.79
2023-06-19T06:39:50.480Z,85.60
2023-06-19T06:40:55.436Z,87.10
2023-06-19T06:41:57.880Z,86.42
2023-06-19T06:43:02.961Z,83.33
2023-06-19T06:44:06.953Z,85.94
2023-06-19T06:45:12.603Z,87.08
2023-06-19T06:46:15.937Z,89.48
2023-06-19T06:47:20.867Z,86.57
2023-06-19T06:48:25.964Z,85.48
2023-06-19T06:50:36.512Z,78.79
2023-06-19T06:51:41.878Z,79.67
2023-06-19T06:52:46.779Z,78.74
2023-06-19T06:53:49.157Z,81.24
2023-06-19T06:54:54.615Z,80.80
2023-06-19T06:55:57.136Z,78.67
2023-06-19T06:57:02.226Z,77.66
2023-06-19T06:58:07.153Z,79.72
2023-06-19T06:59:09.565Z,81.94
2023-06-19T07:00:16.218Z,81.85
2023-06-19T07:01:21.448Z,80.88
2023-06-19T07:02:23.851Z,81.42
2023-06-19T07:03:31.358Z,78.93
2023-06-19T07:04:33.851Z,80.71
2023-06-19T07:05:41.603Z,79.39
2023-06-19T07:06:43.789Z,76.11
2023-06-19T07:07:48.753Z,77.29
2023-06-19T07:08:51.058Z,82.99
2023-06-19T07:09:56.019Z,83.36
2023-06-19T07:10:58.423Z,80.75
2023-06-19T07:12:05.589Z,81.18
2023-06-19T07:13:08.024Z,82.29
2023-06-19T07:14:13.332Z,82.72
2023-06-19T07:15:16.373Z,82.19
2023-06-19T07:16:21.332Z,82.73
2023-06-19T07:17:24.366Z,82.13
2023-06-19T07:18:29.501Z,81.97
2023-06-19T07:19:34.656Z,81.00
2023-06-19T07:20:39.525Z,77.74
2023-06-19T07:21:44.755Z,79.44
2023-06-19T07:22:47.476Z,80.54
2023-06-19T07:23:52.835Z,76.95
2023-06-19T07:24:58.087Z,76.83
2023-06-19T07:26:00.536Z,81.47
2023-06-19T07:27:05.697Z,81.70
2023-06-19T07:28:10.871Z,80.53
2023-06-19T07:29:13.356Z,83.44
2023-06-19T07:30:18.488Z,84.35
2023-06-19T07:31:23.497Z,83.60
2023-06-19T07:32:28.560Z,84.35
2023-06-19T07:33:31.178Z,87.45
2023-06-19T07:34:36.122Z,88.86
2023-06-19T07:35:41.337Z,86.62
2023-06-19T07:36:46.427Z,85.80
2023-06-19T07:37:48.859Z,85.46
2023-06-19T07:38:54.068Z,87.83
2023-06-19T07:39:59.329Z,86.32
2023-06-19T07:41:01.817Z,90.54
2023-06-19T07:42:07.380Z,88.86
2023-06-19T07:43:09.925Z,87.14
2023-06-19T07:44:14.819Z,85.90
2023-06-19T07:45:20.209Z,84.96
2023-06-19T07:46:22.744Z,86.46
2023-06-19T07:47:28.020Z,83.59
2023-06-19T07:48:30.660Z,81.01
2023-06-19T07:49:35.865Z,83.15
2023-06-19T07:50:41.165Z,84.84
2023-06-19T07:51:46.224Z,82.19
2023-06-19T07:52:48.645Z,81.39
2023-06-19T07:53:53.441Z,82.84
2023-06-19T07:54:59.813Z,79.56
2023-06-19T07:56:04.872Z,78.62
2023-06-19T07:57:07.802Z,75.31
2023-06-19T07:58:13.026Z,72.96
2023-06-19T07:59:18.224Z,72.71
2023-06-19T08:00:20.887Z,71.95
2023-06-19T08:01:25.962Z,68.47
2023-06-19T08:02:29.219Z,66.14
2023-06-19T08:03:34.534Z,63.96
2023-06-19T08:04:37.553Z,63.90
2023-06-19T08:05:45.339Z,63.32
2023-06-19T08:06:47.786Z,64.37
2023-06-19T08:07:52.800Z,63.15
2023-06-19T08:08:55.233Z,62.25
2023-06-19T08:10:12.412Z,63.49
2023-06-19T08:11:18.895Z,64.73
2023-06-19T08:12:21.363Z,66.06
2023-06-19T08:13:26.445Z,67.90
2023-06-19T08:14:28.828Z,64.89
2023-06-19T08:15:33.760Z,63.13
2023-06-19T08:16:38.920Z,61.41
2023-06-19T08:17:41.945Z,59.46
2023-06-19T08:18:47.692Z,60.72
2023-06-19T08:19:53.895Z,59.87
2023-06-19T08:21:01.536Z,59.74
2023-06-19T08:22:07.055Z,60.18
2023-06-19T08:23:12.121Z,59.00
2023-06-19T08:24:14.628Z,59.85
2023-06-19T08:25:19.938Z,59.62
2023-06-19T08:26:22.418Z,58.75
2023-06-19T08:27:27.458Z,59.57
2023-06-19T08:28:32.392Z,61.13
2023-06-19T08:29:37.703Z,61.27
2023-06-19T08:30:40.045Z,58.89
2023-06-19T08:31:45.014Z,57.96
2023-06-19T08:32:50.981Z,58.27
2023-06-19T08:33:55.994Z,56.34
2023-06-19T08:34:58.469Z,57.35
2023-06-19T08:36:06.613Z,58.41
2023-06-19T08:37:09.650Z,58.36
2023-06-19T08:38:14.690Z,58.04
2023-06-19T08:39:21.694Z,57.34
2023-06-19T08:40:24.737Z,58.35
2023-06-19T08:41:30.106Z,57.57
2023-06-19T08:42:32.290Z,57.44
2023-06-19T08:43:37.358Z,57.55
2023-06-19T08:44:42.492Z,55.89
2023-06-19T08:45:45.275Z,55.96
2023-06-19T08:46:50.212Z,55.17
2023-06-19T08:48:03.952Z,53.23
2023-06-19T08:49:07.745Z,52.08
2023-06-19T08:50:13.354Z,53.12
2023-06-19T08:51:18.432Z,52.56
2023-06-19T08:52:23.497Z,52.35
2023-06-19T08:53:28.459Z,52.45
2023-06-19T08:54:33.573Z,51.91
2023-06-19T08:55:36.879Z,52.10
2023-06-19T08:56:41.781Z,52.76
2023-06-19T08:57:44.343Z,52.79
2023-06-19T08:58:49.486Z,53.00
2023-06-19T08:59:53.917Z,52.81
2023-06-19T09:01:03.411Z,52.95
2023-06-19T09:02:09.188Z,52.71
2023-06-19T09:03:14.029Z,52.43
2023-06-19T09:04:20.762Z,52.32
2023-06-19T09:05:23.347Z,51.11
2023-06-19T09:06:31.168Z,51.02
2023-06-19T09:07:33.913Z,50.17
2023-06-19T09:08:39.209Z,50.26
2023-06-19T09:09:49.778Z,51.00
2023-06-19T09:11:05.123Z,51.23
2023-06-19T09:12:10.969Z,52.01
2023-06-19T09:13:16.335Z,52.30
2023-06-19T09:14:18.907Z,52.08
2023-06-19T09:15:24.968Z,52.92
2023-06-19T09:16:38.577Z,53.37
2023-06-19T09:17:43.623Z,52.77
2023-06-19T09:18:50.033Z,52.75
2023-06-19T09:19:54.172Z,53.13
2023-06-19T09:20:59.523Z,53.74
2023-06-19T09:22:09.448Z,53.44
2023-06-19T09:23:13.533Z,52.17
2023-06-19T09:24:18.900Z,53.02
2023-06-19T09:25:21.930Z,52.27
2023-06-19T09:26:27.431Z,53.05
2023-06-19T09:27:34.493Z,54.13
2023-06-19T09:28:45.025Z,54.01
2023-06-19T09:29:51.628Z,54.13
2023-06-19T09:31:01.607Z,52.90
2023-06-19T09:32:17.641Z,52.36
2023-06-19T09:33:20.331Z,51.16
2023-06-19T09:34:25.537Z,51.15
2023-06-19T09:35:30.586Z,50.62
2023-06-19T09:36:33.585Z,48.70
2023-06-19T09:37:43.562Z,48.98
2023-06-19T09:38:48.182Z,49.79
2023-06-19T09:39:56.718Z,49.78
2023-06-19T09:41:02.277Z,49.16
2023-06-19T09:42:10.596Z,48.61
2023-06-19T09:43:14.892Z,48.51
2023-06-19T09:44:24.293Z,47.81
2023-06-19T09:45:30.591Z,48.05
2023-06-19T09:46:39.729Z,48.22
2023-06-19T09:47:49.015Z,47.78
2023-06-19T09:48:59.924Z,46.84
2023-06-19T09:50:04.481Z,45.78
2023-06-19T09:51:16.022Z,46.75
2023-06-19T09:52:18.358Z,45.78
2023-06-19T09:53:27.602Z,45.76
2023-06-19T09:54:33.581Z,44.63
2023-06-19T09:55:38.826Z,44.35
2023-06-19T09:56:44.318Z,44.42
2023-06-19T09:57:47.465Z,41.92
2023-06-19T09:58:55.449Z,41.66
2023-06-19T10:00:11.059Z,41.45
2023-06-19T10:01:19.958Z,41.98
2023-06-19T10:02:24.056Z,42.46
2023-06-19T10:03:35.347Z,41.20
2023-06-19T10:04:46.383Z,41.28
2023-06-19T10:05:51.714Z,42.86
2023-06-19T10:06:58.877Z,43.39
2023-06-19T10:08:02.462Z,42.67
2023-06-19T10:09:14.759Z,41.25
2023-06-19T10:10:25.083Z,40.61
2023-06-19T10:11:31.057Z,39.55
2023-06-19T10:12:37.929Z,40.48
2023-06-19T10:13:45.267Z,40.38
2023-06-19T10:14:49.191Z,41.25
2023-06-19T10:15:53.943Z,39.75
2023-06-19T10:16:58.881Z,40.18
2023-06-19T10:18:04.286Z,39.90
2023-06-19T10:19:16.079Z,38.83
2023-06-19T10:20:32.552Z,38.66
2023-06-19T10:21:49.170Z,37.63
2023-06-19T10:22:58.507Z,38.53
2023-06-19T10:24:05.984Z,39.46
2023-06-19T10:25:22.224Z,40.57
2023-06-19T10:26:34.380Z,39.95
2023-06-19T10:27:39.220Z,39.53
2023-06-19T10:28:51.043Z,38.72
2023-06-19T10:29:59.594Z,39.22
2023-06-19T10:31:12.958Z,39.93
2023-06-19T10:32:15.161Z,40.99
2023-06-19T10:33:19.925Z,41.18
2023-06-19T10:34:22.262Z,40.51
2023-06-19T10:35:27.971Z,40.54
2023-06-19T10:36:30.152Z,39.30
2023-06-19T10:37:37.776Z,39.04
2023-06-19T10:38:42.488Z,38.42
2023-06-19T10:39:45.374Z,37.49
2023-06-19T10:40:52.857Z,36.70
2023-06-19T10:41:55.097Z,38.60
2023-06-19T10:42:59.948Z,38.62
2023-06-19T10:44:05.281Z,37.46
2023-06-19T10:45:13.397Z,36.73
2023-06-19T10:46:15.721Z,35.00
2023-06-19T10:47:20.577Z,35.03
2023-06-19T10:48:27.123Z,34.89
2023-06-19T10:49:29.578Z,34.58
2023-06-19T10:50:37.779Z,36.92
2023-06-19T10:51:41.352Z,36.72
2023-06-19T10:52:47.225Z,36.78
2023-06-19T10:53:51.996Z,36.20
2023-06-19T10:54:58.212Z,35.61
2023-06-19T10:56:07.418Z,36.02
2023-06-19T10:57:09.675Z,36.52
2023-06-19T10:58:14.468Z,38.39
2023-06-19T10:59:19.818Z,37.17
2023-06-19T11:00:29.940Z,37.44
2023-06-19T11:01:36.869Z,35.72
2023-06-19T11:02:44.986Z,34.62
2023-06-19T11:03:47.406Z,34.04
2023-06-19T11:04:52.539Z,35.56
2023-06-19T11:05:57.341Z,35.52
2023-06-19T11:07:06.709Z,36.54
2023-06-19T11:08:11.455Z,37.25
2023-06-19T11:09:17.420Z,38.40
2023-06-19T11:10:21.864Z,37.19
2023-06-19T11:11:38.843Z,36.47
2023-06-19T11:12:41.063Z,36.76
2023-06-19T11:13:46.924Z,36.15
2023-06-19T11:14:52.679Z,36.64
2023-06-19T11:15:57.450Z,36.53
2023-06-19T11:16:59.835Z,36.40
2023-06-19T11:18:06.347Z,36.48
2023-06-19T11:19:12.176Z,39.09
2023-06-19T11:20:17.621Z,36.24
2023-06-19T11:21:19.800Z,36.30
2023-06-19T11:22:24.608Z,37.62
2023-06-19T11:23:28.172Z,37.96
2023-06-19T11:24:33.779Z,36.20
2023-06-19T11:25:39.880Z,36.58
2023-06-19T11:26:50.755Z,37.99
2023-06-19T11:27:55.964Z,36.50
2023-06-19T11:28:58.082Z,38.69
2023-06-19T11:30:05.679Z,37.51
2023-06-19T11:31:08.573Z,36.10
2023-06-19T11:32:16.363Z,38.41
2023-06-19T11:33:23.564Z,36.71
2023-06-19T11:34:37.991Z,37.57
2023-06-19T11:35:43.084Z,35.80
2023-06-19T11:36:45.787Z,35.84
2023-06-19T11:37:50.595Z,35.42
2023-06-19T11:38:53.142Z,34.14
2023-06-19T11:40:01.132Z,33.09
2023-06-19T11:41:06.704Z,34.17
2023-06-19T11:42:11.837Z,33.30
2023-06-19T11:43:27.500Z,33.65
2023-06-19T11:44:32.193Z,33.74
2023-06-19T11:45:34.351Z,34.09
2023-06-19T11:46:39.198Z,32.32
2023-06-19T11:47:44.142Z,30.70
2023-06-19T11:48:59.449Z,32.30
2023-06-19T11:50:12.224Z,31.63
2023-06-19T11:51:14.357Z,31.05
2023-06-19T11:52:19.477Z,30.40
2023-06-19T11:53:24.574Z,30.47
2023-06-19T11:54:26.748Z,32.06
2023-06-19T11:55:31.436Z,31.58
2023-06-19T11:56:36.191Z,31.66
2023-06-19T11:57:44.936Z,30.37
2023-06-19T11:58:49.836Z,30.34
2023-06-19T11:59:54.519Z,30.65
2023-06-19T12:00:57.679Z,29.85
2023-06-19T12:02:02.516Z,30.05
2023-06-19T12:03:07.475Z,30.06
2023-06-19T12:04:09.905Z,30.24
2023-06-19T12:05:15.586Z,30.52
2023-06-19T12:06:19.096Z,30.72
2023-06-19T12:07:23.949Z,30.30
2023-06-19T12:08:29.078Z,29.51
2023-06-19T12:09:31.270Z,30.48
2023-06-19T12:10:36.420Z,31.02
2023-06-19T12:11:38.557Z,29.46
2023-06-19T12:12:45.836Z,30.56
2023-06-19T12:13:48.550Z,31.44
2023-06-19T12:14:53.289Z,31.80
2023-06-19T12:15:58.143Z,32.19
2023-06-19T12:17:00.339Z,32.18
2023-06-19T12:18:05.356Z,32.57
2023-06-19T12:19:07.859Z,33.04
2023-06-19T12:20:14.940Z,34.42
2023-06-19T12:21:32.828Z,36.44
2023-06-19T12:22:39.496Z,35.46
2023-06-19T12:23:41.822Z,35.10
2023-06-19T12:24:46.582Z,34.73
2023-06-19T12:25:48.877Z,34.69
2023-06-19T12:26:53.603Z,34.44
2023-06-19T12:28:00.917Z,33.64
2023-06-19T12:29:03.302Z,34.93
2023-06-19T12:30:09.815Z,35.06
2023-06-19T12:31:14.573Z,34.10
2023-06-19T12:32:19.441Z,33.54
2023-06-19T12:33:22.031Z,33.55
2023-06-19T12:34:30.995Z,34.80
2023-06-19T12:35:33.611Z,33.85
2023-06-19T12:36:38.418Z,31.95
2023-06-19T12:37:43.311Z,30.77
2023-06-19T12:38:49.196Z,29.75
2023-06-19T12:39:54.512Z,26.99
2023-06-19T12:40:56.645Z,26.46
2023-06-19T12:42:01.570Z,25.40
2023-06-19T12:43:06.348Z,24.64
2023-06-19T12:44:11.104Z,24.43
2023-06-19T12:45:14.090Z,24.26
2023-06-19T12:46:19.055Z,24.54
2023-06-19T12:47:23.950Z,25.03
2023-06-19T12:48:26.445Z,23.93
2023-06-19T12:49:31.328Z,23.81
2023-06-19T12:50:36.469Z,25.85
2023-06-19T12:51:41.246Z,27.01
2023-06-19T12:52:46.061Z,26.73
2023-06-19T12:53:48.234Z,25.08
2023-06-19T12:54:52.938Z,25.45
2023-06-19T12:56:01.575Z,25.40
2023-06-19T12:57:09.847Z,24.84
2023-06-19T12:58:17.289Z,25.85
2023-06-19T12:59:19.496Z,26.21
2023-06-19T13:00:24.756Z,25.73
2023-06-19T13:01:27.237Z,25.95
2023-06-19T13:02:32.543Z,25.83
2023-06-19T13:03:34.880Z,27.15
2023-06-19T13:04:39.722Z,26.17
2023-06-19T13:05:41.951Z,25.81
2023-06-19T13:06:46.681Z,25.19
2023-06-19T13:07:48.902Z,26.05
2023-06-19T13:08:53.664Z,25.33
2023-06-19T13:09:55.830Z,27.20
2023-06-19T13:11:00.524Z,26.41
2023-06-19T13:12:05.240Z,25.39
2023-06-19T13:13:07.538Z,25.17
2023-06-19T13:14:14.872Z,24.62
2023-06-19T13:15:17.261Z,26.69
2023-06-19T13:16:33.466Z,25.92
2023-06-19T13:17:46.888Z,25.41
2023-06-19T13:18:49.028Z,25.14
2023-06-19T13:19:53.774Z,24.36
2023-06-19T13:20:56.420Z,23.77
2023-06-19T13:22:01.224Z,23.36
2023-06-19T13:23:03.382Z,23.60
2023-06-19T13:24:08.969Z,23.43
2023-06-19T13:25:11.327Z,24.28
2023-06-19T13:26:16.050Z,25.31
2023-06-19T13:27:20.954Z,25.72
2023-06-19T13:28:23.136Z,26.15
2023-06-19T13:29:30.738Z,27.22
2023-06-19T13:30:32.901Z,27.39
2023-06-19T13:31:37.669Z,27.78
2023-06-19T13:32:42.532Z,26.27
2023-06-19T13:33:47.592Z,25.58
2023-06-19T13:34:52.304Z,25.99
2023-06-19T13:35:54.446Z,25.49
2023-06-19T13:36:59.242Z,25.70
2023-06-19T13:38:01.506Z,24.81
2023-06-19T13:39:06.693Z,24.08
2023-06-19T13:40:10.062Z,22.76
2023-06-19T13:41:15.032Z,22.75
2023-06-19T13:42:19.938Z,21.73
2023-06-19T13:43:24.495Z,23.52
2023-06-19T13:44:31.875Z,23.63
2023-06-19T13:45:35.103Z,26.10
2023-06-19T13:46:39.899Z,23.62
2023-06-19T13:47:44.648Z,23.77
2023-06-19T13:48:49.948Z,23.56
2023-06-19T13:49:54.737Z,21.90
2023-06-19T13:50:56.901Z,22.52
2023-06-19T13:52:01.737Z,22.05
2023-06-19T13:53:03.875Z,20.69
2023-06-19T13:54:09.209Z,21.32
2023-06-19T13:55:11.379Z,20.88
2023-06-19T13:56:17.060Z,20.22
2023-06-19T13:57:21.904Z,20.33